sensor_id;sensor_type;location;lat;lon;timestamp;P1;durP1;ratioP1;P2;durP2;ratioP2
55172;SDS011;41061;52.822;6.860;2023-04-24T00:00:19;1.17;;;1.00;;
55172;SDS011;41061;52.822;6.860;2023-04-24T00:02:45;1.52;;;1.00;;
55172;SDS011;41061;52.822;6.860;2023-04-24T00:05:12;1.05;;;0.95;;
55172;SDS011;41061;52.822;6.860;2023-04-24T00:07:39;4.90;;;3.95;;
55172;SDS011;41061;52.822;6.860;2023-04-24T00:10:06;7.75;;;6.70;;
55172;SDS011;41061;52.822;6.860;2023-04-24T00:12:32;6.35;;;5.63;;
55172;SDS011;41061;52.822;6.860;2023-04-24T00:14:59;3.40;;;3.00;;
55172;SDS011;41061;52.822;6.860;2023-04-24T00:17:25;5.38;;;2.50;;
55172;SDS011;41061;52.822;6.860;2023-04-24T00:19:51;3.53;;;2.70;;
55172;SDS011;41061;52.822;6.860;2023-04-24T00:22:26;2.38;;;1.90;;
55172;SDS011;41061;52.822;6.860;2023-04-24T00:24:53;1.63;;;1.52;;
55172;SDS011;41061;52.822;6.860;2023-04-24T00:27:19;2.08;;;1.70;;
55172;SDS011;41061;52.822;6.860;2023-04-24T00:29:45;2.47;;;1.65;;
55172;SDS011;41061;52.822;6.860;2023-04-24T00:32:11;1.88;;;1.67;;
55172;SDS011;41061;52.822;6.860;2023-04-24T00:34:36;1.55;;;1.45;;
55172;SDS011;41061;52.822;6.860;2023-04-24T00:37:02;1.85;;;1.70;;
55172;SDS011;41061;52.822;6.860;2023-04-24T00:39:28;2.25;;;1.70;;
55172;SDS011;41061;52.822;6.860;2023-04-24T00:41:54;1.38;;;1.25;;
55172;SDS011;41061;52.822;6.860;2023-04-24T00:44:21;2.15;;;1.40;;
55172;SDS011;41061;52.822;6.860;2023-04-24T00:46:47;4.57;;;1.50;;
55172;SDS011;41061;52.822;6.860;2023-04-24T00:49:17;2.65;;;1.50;;
55172;SDS011;41061;52.822;6.860;2023-04-24T00:51:44;2.38;;;1.25;;
55172;SDS011;41061;52.822;6.860;2023-04-24T00:54:11;2.70;;;1.20;;
55172;SDS011;41061;52.822;6.860;2023-04-24T00:56:37;1.88;;;1.63;;
55172;SDS011;41061;52.822;6.860;2023-04-24T00:59:03;1.83;;;1.30;;
55172;SDS011;41061;52.822;6.860;2023-04-24T01:01:30;2.85;;;1.10;;
55172;SDS011;41061;52.822;6.860;2023-04-24T01:03:55;2.03;;;1.17;;
55172;SDS011;41061;52.822;6.860;2023-04-24T01:06:22;2.10;;;1.88;;
55172;SDS011;41061;52.822;6.860;2023-04-24T01:08:52;2.22;;;1.15;;
55172;SDS011;41061;52.822;6.860;2023-04-24T01:11:18;4.43;;;1.25;;
55172;SDS011;41061;52.822;6.860;2023-04-24T01:13:46;1.63;;;1.17;;
55172;SDS011;41061;52.822;6.860;2023-04-24T01:16:13;1.42;;;1.10;;
55172;SDS011;41061;52.822;6.860;2023-04-24T01:18:42;1.65;;;1.10;;
55172;SDS011;41061;52.822;6.860;2023-04-24T01:21:08;1.15;;;1.00;;
55172;SDS011;41061;52.822;6.860;2023-04-24T01:23:36;1.40;;;1.10;;
55172;SDS011;41061;52.822;6.860;2023-04-24T01:26:02;2.88;;;1.17;;
55172;SDS011;41061;52.822;6.860;2023-04-24T01:28:28;1.80;;;1.23;;
55172;SDS011;41061;52.822;6.860;2023-04-24T01:30:53;2.15;;;1.40;;
55172;SDS011;41061;52.822;6.860;2023-04-24T01:33:20;2.83;;;1.50;;
55172;SDS011;41061;52.822;6.860;2023-04-24T01:35:47;1.45;;;1.35;;
55172;SDS011;41061;52.822;6.860;2023-04-24T01:38:13;1.50;;;1.40;;
55172;SDS011;41061;52.822;6.860;2023-04-24T01:40:39;2.97;;;1.60;;
55172;SDS011;41061;52.822;6.860;2023-04-24T01:43:04;1.90;;;1.70;;
55172;SDS011;41061;52.822;6.860;2023-04-24T01:45:30;3.25;;;1.75;;
55172;SDS011;41061;52.822;6.860;2023-04-24T01:47:56;1.80;;;1.60;;
55172;SDS011;41061;52.822;6.860;2023-04-24T01:50:22;3.10;;;1.80;;
55172;SDS011;41061;52.822;6.860;2023-04-24T01:52:48;2.08;;;1.52;;
55172;SDS011;41061;52.822;6.860;2023-04-24T01:55:14;2.17;;;1.73;;
55172;SDS011;41061;52.822;6.860;2023-04-24T01:57:40;2.13;;;1.92;;
55172;SDS011;41061;52.822;6.860;2023-04-24T02:00:06;3.35;;;2.30;;
55172;SDS011;41061;52.822;6.860;2023-04-24T02:02:32;4.18;;;2.40;;
55172;SDS011;41061;52.822;6.860;2023-04-24T02:04:58;5.25;;;2.65;;
55172;SDS011;41061;52.822;6.860;2023-04-24T02:07:24;3.60;;;2.70;;
55172;SDS011;41061;52.822;6.860;2023-04-24T02:09:50;3.25;;;2.72;;
55172;SDS011;41061;52.822;6.860;2023-04-24T02:12:16;4.30;;;3.45;;
55172;SDS011;41061;52.822;6.860;2023-04-24T02:14:42;4.00;;;3.15;;
55172;SDS011;41061;52.822;6.860;2023-04-24T02:17:09;4.80;;;3.47;;
55172;SDS011;41061;52.822;6.860;2023-04-24T02:19:38;5.70;;;3.83;;
55172;SDS011;41061;52.822;6.860;2023-04-24T02:22:04;6.18;;;4.28;;
55172;SDS011;41061;52.822;6.860;2023-04-24T02:24:29;4.47;;;3.72;;
55172;SDS011;41061;52.822;6.860;2023-04-24T02:26:55;7.47;;;4.10;;
55172;SDS011;41061;52.822;6.860;2023-04-24T02:29:21;5.45;;;3.95;;
55172;SDS011;41061;52.822;6.860;2023-04-24T02:31:47;6.57;;;4.28;;
55172;SDS011;41061;52.822;6.860;2023-04-24T02:34:13;6.57;;;4.00;;
55172;SDS011;41061;52.822;6.860;2023-04-24T02:36:39;4.25;;;3.70;;
55172;SDS011;41061;52.822;6.860;2023-04-24T02:39:04;7.05;;;4.13;;
55172;SDS011;41061;52.822;6.860;2023-04-24T02:41:30;5.25;;;4.18;;
55172;SDS011;41061;52.822;6.860;2023-04-24T02:43:58;4.38;;;3.90;;
55172;SDS011;41061;52.822;6.860;2023-04-24T02:46:24;4.50;;;4.10;;
55172;SDS011;41061;52.822;6.860;2023-04-24T02:48:49;4.25;;;3.80;;
55172;SDS011;41061;52.822;6.860;2023-04-24T02:51:15;4.70;;;4.13;;
55172;SDS011;41061;52.822;6.860;2023-04-24T02:53:41;4.28;;;3.78;;
55172;SDS011;41061;52.822;6.860;2023-04-24T02:56:07;4.57;;;4.00;;
55172;SDS011;41061;52.822;6.860;2023-04-24T02:58:33;7.25;;;3.67;;
55172;SDS011;41061;52.822;6.860;2023-04-24T03:00:58;5.00;;;4.00;;
55172;SDS011;41061;52.822;6.860;2023-04-24T03:03:25;4.15;;;3.75;;
55172;SDS011;41061;52.822;6.860;2023-04-24T03:05:51;4.30;;;3.65;;
55172;SDS011;41061;52.822;6.860;2023-04-24T03:08:17;4.65;;;3.80;;
55172;SDS011;41061;52.822;6.860;2023-04-24T03:10:43;4.88;;;4.10;;
55172;SDS011;41061;52.822;6.860;2023-04-24T03:13:09;4.30;;;3.60;;
55172;SDS011;41061;52.822;6.860;2023-04-24T03:15:35;4.57;;;3.42;;
55172;SDS011;41061;52.822;6.860;2023-04-24T03:18:01;4.68;;;3.25;;
55172;SDS011;41061;52.822;6.860;2023-04-24T03:20:27;8.57;;;3.55;;
55172;SDS011;41061;52.822;6.860;2023-04-24T03:22:53;4.03;;;3.55;;
55172;SDS011;41061;52.822;6.860;2023-04-24T03:25:19;5.63;;;3.72;;
55172;SDS011;41061;52.822;6.860;2023-04-24T03:27:45;4.65;;;3.63;;
55172;SDS011;41061;52.822;6.860;2023-04-24T03:30:11;3.97;;;3.58;;
55172;SDS011;41061;52.822;6.860;2023-04-24T03:32:37;4.53;;;3.60;;
55172;SDS011;41061;52.822;6.860;2023-04-24T03:35:05;4.35;;;3.95;;
55172;SDS011;41061;52.822;6.860;2023-04-24T03:37:33;5.18;;;4.07;;
55172;SDS011;41061;52.822;6.860;2023-04-24T03:39:59;5.93;;;3.95;;
55172;SDS011;41061;52.822;6.860;2023-04-24T03:42:26;4.30;;;3.75;;
55172;SDS011;41061;52.822;6.860;2023-04-24T03:44:52;4.45;;;4.05;;
55172;SDS011;41061;52.822;6.860;2023-04-24T03:47:18;4.35;;;3.95;;
55172;SDS011;41061;52.822;6.860;2023-04-24T03:49:43;4.65;;;4.10;;
55172;SDS011;41061;52.822;6.860;2023-04-24T03:52:09;6.10;;;4.18;;
55172;SDS011;41061;52.822;6.860;2023-04-24T03:54:35;4.75;;;4.20;;
55172;SDS011;41061;52.822;6.860;2023-04-24T03:57:00;6.72;;;4.55;;
55172;SDS011;41061;52.822;6.860;2023-04-24T03:59:26;7.70;;;4.70;;
55172;SDS011;41061;52.822;6.860;2023-04-24T04:01:52;5.85;;;4.18;;
55172;SDS011;41061;52.822;6.860;2023-04-24T04:04:18;5.05;;;4.55;;
55172;SDS011;41061;52.822;6.860;2023-04-24T04:06:43;5.57;;;4.57;;
55172;SDS011;41061;52.822;6.860;2023-04-24T04:09:09;6.60;;;4.85;;
55172;SDS011;41061;52.822;6.860;2023-04-24T04:11:36;5.53;;;4.50;;
55172;SDS011;41061;52.822;6.860;2023-04-24T04:14:01;5.25;;;4.55;;
55172;SDS011;41061;52.822;6.860;2023-04-24T04:16:28;4.90;;;4.40;;
55172;SDS011;41061;52.822;6.860;2023-04-24T04:18:54;5.70;;;4.60;;
55172;SDS011;41061;52.822;6.860;2023-04-24T04:21:20;6.97;;;4.55;;
55172;SDS011;41061;52.822;6.860;2023-04-24T04:23:46;5.55;;;4.80;;
55172;SDS011;41061;52.822;6.860;2023-04-24T04:26:13;7.93;;;4.20;;
55172;SDS011;41061;52.822;6.860;2023-04-24T04:28:39;5.10;;;4.60;;
55172;SDS011;41061;52.822;6.860;2023-04-24T04:31:05;5.60;;;4.60;;
55172;SDS011;41061;52.822;6.860;2023-04-24T04:33:32;7.05;;;5.22;;
55172;SDS011;41061;52.822;6.860;2023-04-24T04:35:58;5.88;;;4.72;;
55172;SDS011;41061;52.822;6.860;2023-04-24T04:38:25;6.47;;;5.10;;
55172;SDS011;41061;52.822;6.860;2023-04-24T04:40:55;5.40;;;4.78;;
55172;SDS011;41061;52.822;6.860;2023-04-24T04:43:24;6.57;;;4.63;;
55172;SDS011;41061;52.822;6.860;2023-04-24T04:45:50;5.72;;;4.90;;
55172;SDS011;41061;52.822;6.860;2023-04-24T04:48:16;5.47;;;4.90;;
55172;SDS011;41061;52.822;6.860;2023-04-24T04:50:43;6.55;;;5.30;;
55172;SDS011;41061;52.822;6.860;2023-04-24T04:53:09;8.35;;;4.88;;
55172;SDS011;41061;52.822;6.860;2023-04-24T04:55:35;5.80;;;4.88;;
55172;SDS011;41061;52.822;6.860;2023-04-24T04:58:01;6.93;;;4.50;;
55172;SDS011;41061;52.822;6.860;2023-04-24T05:00:27;5.18;;;4.55;;
55172;SDS011;41061;52.822;6.860;2023-04-24T05:02:58;5.78;;;4.90;;
55172;SDS011;41061;52.822;6.860;2023-04-24T05:05:24;7.10;;;4.10;;
55172;SDS011;41061;52.822;6.860;2023-04-24T05:07:50;6.57;;;4.60;;
55172;SDS011;41061;52.822;6.860;2023-04-24T05:10:16;5.63;;;4.65;;
55172;SDS011;41061;52.822;6.860;2023-04-24T05:12:41;5.53;;;4.68;;
55172;SDS011;41061;52.822;6.860;2023-04-24T05:15:07;5.60;;;4.82;;
55172;SDS011;41061;52.822;6.860;2023-04-24T05:17:33;5.30;;;4.30;;
55172;SDS011;41061;52.822;6.860;2023-04-24T05:19:59;5.45;;;4.32;;
55172;SDS011;41061;52.822;6.860;2023-04-24T05:22:25;7.57;;;4.78;;
55172;SDS011;41061;52.822;6.860;2023-04-24T05:24:51;4.90;;;4.43;;
55172;SDS011;41061;52.822;6.860;2023-04-24T05:27:17;5.55;;;4.40;;
55172;SDS011;41061;52.822;6.860;2023-04-24T05:29:43;4.07;;;3.65;;
55172;SDS011;41061;52.822;6.860;2023-04-24T05:32:08;5.82;;;4.50;;
55172;SDS011;41061;52.822;6.860;2023-04-24T05:34:37;5.60;;;4.25;;
55172;SDS011;41061;52.822;6.860;2023-04-24T05:37:02;4.38;;;3.97;;
55172;SDS011;41061;52.822;6.860;2023-04-24T05:39:33;5.75;;;4.65;;
55172;SDS011;41061;52.822;6.860;2023-04-24T05:41:59;4.78;;;4.03;;
55172;SDS011;41061;52.822;6.860;2023-04-24T05:44:26;4.65;;;3.00;;
55172;SDS011;41061;52.822;6.860;2023-04-24T05:46:52;4.88;;;3.85;;
55172;SDS011;41061;52.822;6.860;2023-04-24T05:49:17;3.95;;;2.75;;
55172;SDS011;41061;52.822;6.860;2023-04-24T05:51:43;3.42;;;3.13;;
55172;SDS011;41061;52.822;6.860;2023-04-24T05:54:09;3.15;;;2.55;;
55172;SDS011;41061;52.822;6.860;2023-04-24T05:56:37;4.25;;;2.45;;
55172;SDS011;41061;52.822;6.860;2023-04-24T05:59:03;2.80;;;2.30;;
55172;SDS011;41061;52.822;6.860;2023-04-24T06:01:29;3.08;;;2.65;;
55172;SDS011;41061;52.822;6.860;2023-04-24T06:03:55;2.70;;;2.30;;
55172;SDS011;41061;52.822;6.860;2023-04-24T06:06:20;3.92;;;3.05;;
55172;SDS011;41061;52.822;6.860;2023-04-24T06:08:46;3.72;;;2.53;;
55172;SDS011;41061;52.822;6.860;2023-04-24T06:11:12;7.97;;;2.90;;
55172;SDS011;41061;52.822;6.860;2023-04-24T06:13:37;4.00;;;2.78;;
55172;SDS011;41061;52.822;6.860;2023-04-24T06:16:04;3.78;;;2.90;;
55172;SDS011;41061;52.822;6.860;2023-04-24T06:18:30;4.68;;;2.78;;
55172;SDS011;41061;52.822;6.860;2023-04-24T06:20:56;3.53;;;2.88;;
55172;SDS011;41061;52.822;6.860;2023-04-24T06:23:22;2.78;;;2.30;;
55172;SDS011;41061;52.822;6.860;2023-04-24T06:25:47;2.03;;;1.75;;
55172;SDS011;41061;52.822;6.860;2023-04-24T06:28:13;2.83;;;2.08;;
55172;SDS011;41061;52.822;6.860;2023-04-24T06:30:39;2.20;;;1.80;;
55172;SDS011;41061;52.822;6.860;2023-04-24T06:33:06;7.88;;;1.85;;
55172;SDS011;41061;52.822;6.860;2023-04-24T06:35:31;2.30;;;1.70;;
55172;SDS011;41061;52.822;6.860;2023-04-24T06:37:57;3.35;;;1.75;;
55172;SDS011;41061;52.822;6.860;2023-04-24T06:40:23;2.92;;;1.70;;
55172;SDS011;41061;52.822;6.860;2023-04-24T06:42:49;2.38;;;1.25;;
55172;SDS011;41061;52.822;6.860;2023-04-24T06:45:15;2.40;;;1.83;;
55172;SDS011;41061;52.822;6.860;2023-04-24T06:47:41;2.08;;;1.73;;
55172;SDS011;41061;52.822;6.860;2023-04-24T06:50:07;2.42;;;1.85;;
55172;SDS011;41061;52.822;6.860;2023-04-24T06:52:33;2.65;;;1.65;;
55172;SDS011;41061;52.822;6.860;2023-04-24T06:55:02;2.15;;;1.80;;
55172;SDS011;41061;52.822;6.860;2023-04-24T06:57:28;2.15;;;1.73;;
55172;SDS011;41061;52.822;6.860;2023-04-24T06:59:55;2.78;;;1.80;;
55172;SDS011;41061;52.822;6.860;2023-04-24T07:02:20;1.95;;;1.58;;
55172;SDS011;41061;52.822;6.860;2023-04-24T07:04:46;1.92;;;1.35;;
55172;SDS011;41061;52.822;6.860;2023-04-24T07:07:15;2.58;;;1.30;;
55172;SDS011;41061;52.822;6.860;2023-04-24T07:09:41;1.35;;;1.20;;
55172;SDS011;41061;52.822;6.860;2023-04-24T07:12:07;1.50;;;1.23;;
55172;SDS011;41061;52.822;6.860;2023-04-24T07:14:35;1.75;;;1.30;;
55172;SDS011;41061;52.822;6.860;2023-04-24T07:17:02;1.50;;;1.40;;
55172;SDS011;41061;52.822;6.860;2023-04-24T07:19:31;4.63;;;1.50;;
55172;SDS011;41061;52.822;6.860;2023-04-24T07:21:58;2.42;;;1.30;;
55172;SDS011;41061;52.822;6.860;2023-04-24T07:24:24;2.17;;;1.42;;
55172;SDS011;41061;52.822;6.860;2023-04-24T07:26:51;3.28;;;1.67;;
55172;SDS011;41061;52.822;6.860;2023-04-24T07:29:17;3.10;;;1.63;;
55172;SDS011;41061;52.822;6.860;2023-04-24T07:31:44;1.60;;;1.30;;
55172;SDS011;41061;52.822;6.860;2023-04-24T07:34:09;2.30;;;1.35;;
55172;SDS011;41061;52.822;6.860;2023-04-24T07:36:35;2.10;;;1.75;;
55172;SDS011;41061;52.822;6.860;2023-04-24T07:39:03;1.60;;;1.20;;
55172;SDS011;41061;52.822;6.860;2023-04-24T07:41:29;3.42;;;1.60;;
55172;SDS011;41061;52.822;6.860;2023-04-24T07:43:55;1.58;;;1.40;;
55172;SDS011;41061;52.822;6.860;2023-04-24T07:46:21;3.42;;;1.25;;
55172;SDS011;41061;52.822;6.860;2023-04-24T07:48:48;2.28;;;1.20;;
55172;SDS011;41061;52.822;6.860;2023-04-24T07:51:14;1.90;;;1.33;;
55172;SDS011;41061;52.822;6.860;2023-04-24T07:53:40;3.75;;;1.75;;
55172;SDS011;41061;52.822;6.860;2023-04-24T07:56:07;2.83;;;1.83;;
55172;SDS011;41061;52.822;6.860;2023-04-24T07:58:32;3.88;;;1.73;;
55172;SDS011;41061;52.822;6.860;2023-04-24T08:00:59;1.50;;;1.30;;
55172;SDS011;41061;52.822;6.860;2023-04-24T08:03:25;4.90;;;1.35;;
55172;SDS011;41061;52.822;6.860;2023-04-24T08:05:50;2.45;;;1.52;;
55172;SDS011;41061;52.822;6.860;2023-04-24T08:08:16;2.08;;;1.55;;
55172;SDS011;41061;52.822;6.860;2023-04-24T08:10:42;4.88;;;2.03;;
55172;SDS011;41061;52.822;6.860;2023-04-24T08:13:08;3.92;;;1.50;;
55172;SDS011;41061;52.822;6.860;2023-04-24T08:15:36;5.25;;;1.65;;
55172;SDS011;41061;52.822;6.860;2023-04-24T08:18:02;4.35;;;1.52;;
55172;SDS011;41061;52.822;6.860;2023-04-24T08:20:27;2.13;;;1.60;;
55172;SDS011;41061;52.822;6.860;2023-04-24T08:22:53;2.95;;;1.70;;
55172;SDS011;41061;52.822;6.860;2023-04-24T08:25:20;3.05;;;1.75;;
55172;SDS011;41061;52.822;6.860;2023-04-24T08:27:48;3.25;;;1.70;;
55172;SDS011;41061;52.822;6.860;2023-04-24T08:30:13;2.47;;;1.50;;
55172;SDS011;41061;52.822;6.860;2023-04-24T08:32:39;2.67;;;1.45;;
55172;SDS011;41061;52.822;6.860;2023-04-24T08:35:05;3.03;;;1.50;;
55172;SDS011;41061;52.822;6.860;2023-04-24T08:37:34;3.28;;;1.42;;
55172;SDS011;41061;52.822;6.860;2023-04-24T08:40:00;3.25;;;1.52;;
55172;SDS011;41061;52.822;6.860;2023-04-24T08:42:28;3.85;;;1.25;;
55172;SDS011;41061;52.822;6.860;2023-04-24T08:44:54;4.57;;;1.52;;
55172;SDS011;41061;52.822;6.860;2023-04-24T08:47:20;4.47;;;1.50;;
55172;SDS011;41061;52.822;6.860;2023-04-24T08:49:48;2.00;;;1.15;;
55172;SDS011;41061;52.822;6.860;2023-04-24T08:52:15;4.75;;;1.30;;
55172;SDS011;41061;52.822;6.860;2023-04-24T08:54:41;3.30;;;1.38;;
55172;SDS011;41061;52.822;6.860;2023-04-24T08:57:08;5.93;;;1.90;;
55172;SDS011;41061;52.822;6.860;2023-04-24T08:59:36;5.88;;;1.80;;
55172;SDS011;41061;52.822;6.860;2023-04-24T09:02:03;4.28;;;2.03;;
55172;SDS011;41061;52.822;6.860;2023-04-24T09:04:29;7.82;;;3.42;;
55172;SDS011;41061;52.822;6.860;2023-04-24T09:06:56;9.07;;;5.30;;
55172;SDS011;41061;52.822;6.860;2023-04-24T09:09:23;11.57;;;5.50;;
55172;SDS011;41061;52.822;6.860;2023-04-24T09:11:50;13.05;;;6.05;;
55172;SDS011;41061;52.822;6.860;2023-04-24T09:14:18;12.57;;;7.30;;
55172;SDS011;41061;52.822;6.860;2023-04-24T09:16:45;13.30;;;6.68;;
55172;SDS011;41061;52.822;6.860;2023-04-24T09:19:11;10.93;;;6.75;;
55172;SDS011;41061;52.822;6.860;2023-04-24T09:21:37;13.27;;;6.22;;
55172;SDS011;41061;52.822;6.860;2023-04-24T09:24:04;12.45;;;5.63;;
55172;SDS011;41061;52.822;6.860;2023-04-24T09:26:34;14.55;;;7.10;;
55172;SDS011;41061;52.822;6.860;2023-04-24T09:29:01;12.13;;;6.32;;
55172;SDS011;41061;52.822;6.860;2023-04-24T09:31:28;13.95;;;6.97;;
55172;SDS011;41061;52.822;6.860;2023-04-24T09:33:58;15.40;;;6.90;;
55172;SDS011;41061;52.822;6.860;2023-04-24T09:36:31;11.48;;;7.20;;
55172;SDS011;41061;52.822;6.860;2023-04-24T09:38:59;13.10;;;6.88;;
55172;SDS011;41061;52.822;6.860;2023-04-24T09:41:26;16.05;;;8.85;;
55172;SDS011;41061;52.822;6.860;2023-04-24T09:43:56;16.92;;;8.93;;
55172;SDS011;41061;52.822;6.860;2023-04-24T09:46:30;19.05;;;9.77;;
55172;SDS011;41061;52.822;6.860;2023-04-24T09:49:07;19.10;;;10.50;;
55172;SDS011;41061;52.822;6.860;2023-04-24T09:51:41;19.00;;;11.45;;
55172;SDS011;41061;52.822;6.860;2023-04-24T09:54:13;21.52;;;10.63;;
55172;SDS011;41061;52.822;6.860;2023-04-24T09:56:45;20.90;;;10.93;;
55172;SDS011;41061;52.822;6.860;2023-04-24T09:59:13;21.70;;;11.18;;
55172;SDS011;41061;52.822;6.860;2023-04-24T10:01:39;20.23;;;10.90;;
55172;SDS011;41061;52.822;6.860;2023-04-24T10:07:02;17.85;;;10.48;;
55172;SDS011;41061;52.822;6.860;2023-04-24T10:09:31;17.42;;;9.07;;
55172;SDS011;41061;52.822;6.860;2023-04-24T10:11:58;14.95;;;8.98;;
55172;SDS011;41061;52.822;6.860;2023-04-24T10:14:27;15.63;;;8.70;;
55172;SDS011;41061;52.822;6.860;2023-04-24T10:16:53;15.75;;;8.95;;
55172;SDS011;41061;52.822;6.860;2023-04-24T10:19:21;12.93;;;8.68;;
55172;SDS011;41061;52.822;6.860;2023-04-24T10:21:50;13.52;;;8.63;;
55172;SDS011;41061;52.822;6.860;2023-04-24T10:24:18;18.55;;;9.30;;
55172;SDS011;41061;52.822;6.860;2023-04-24T10:26:46;21.02;;;9.35;;
55172;SDS011;41061;52.822;6.860;2023-04-24T10:29:16;16.35;;;7.78;;
55172;SDS011;41061;52.822;6.860;2023-04-24T10:31:43;13.32;;;7.55;;
55172;SDS011;41061;52.822;6.860;2023-04-24T10:34:12;10.98;;;6.50;;
55172;SDS011;41061;52.822;6.860;2023-04-24T10:36:40;12.25;;;7.50;;
55172;SDS011;41061;52.822;6.860;2023-04-24T10:39:11;12.57;;;6.65;;
55172;SDS011;41061;52.822;6.860;2023-04-24T10:41:39;12.07;;;6.20;;
55172;SDS011;41061;52.822;6.860;2023-04-24T10:46:39;10.05;;;5.32;;
55172;SDS011;41061;52.822;6.860;2023-04-24T10:49:10;18.40;;;6.47;;
55172;SDS011;41061;52.822;6.860;2023-04-24T10:51:48;15.65;;;5.78;;
55172;SDS011;41061;52.822;6.860;2023-04-24T10:56:52;12.85;;;4.50;;
55172;SDS011;41061;52.822;6.860;2023-04-24T10:59:26;12.57;;;4.72;;
55172;SDS011;41061;52.822;6.860;2023-04-24T11:01:53;10.93;;;4.68;;
55172;SDS011;41061;52.822;6.860;2023-04-24T11:04:30;9.15;;;4.85;;
55172;SDS011;41061;52.822;6.860;2023-04-24T11:06:56;16.35;;;4.82;;
55172;SDS011;41061;52.822;6.860;2023-04-24T11:09:22;10.30;;;4.72;;
55172;SDS011;41061;52.822;6.860;2023-04-24T11:11:53;13.60;;;4.35;;
55172;SDS011;41061;52.822;6.860;2023-04-24T11:17:34;10.35;;;2.92;;
55172;SDS011;41061;52.822;6.860;2023-04-24T11:20:15;15.00;;;4.10;;
55172;SDS011;41061;52.822;6.860;2023-04-24T11:22:42;8.57;;;2.75;;
55172;SDS011;41061;52.822;6.860;2023-04-24T11:25:08;7.85;;;2.65;;
55172;SDS011;41061;52.822;6.860;2023-04-24T11:30:07;9.60;;;2.60;;
55172;SDS011;41061;52.822;6.860;2023-04-24T11:37:46;9.63;;;2.63;;
55172;SDS011;41061;52.822;6.860;2023-04-24T11:40:16;7.90;;;2.40;;
55172;SDS011;41061;52.822;6.860;2023-04-24T11:42:44;10.93;;;3.50;;
55172;SDS011;41061;52.822;6.860;2023-04-24T11:45:22;9.75;;;2.22;;
55172;SDS011;41061;52.822;6.860;2023-04-24T11:47:52;6.78;;;2.50;;
55172;SDS011;41061;52.822;6.860;2023-04-24T11:50:19;8.82;;;2.50;;
55172;SDS011;41061;52.822;6.860;2023-04-24T11:52:47;8.40;;;2.20;;
55172;SDS011;41061;52.822;6.860;2023-04-24T11:57:39;10.43;;;2.83;;
55172;SDS011;41061;52.822;6.860;2023-04-24T12:00:20;9.60;;;2.25;;
55172;SDS011;41061;52.822;6.860;2023-04-24T12:02:47;7.07;;;2.10;;
55172;SDS011;41061;52.822;6.860;2023-04-24T12:05:21;11.45;;;2.55;;
55172;SDS011;41061;52.822;6.860;2023-04-24T12:07:48;12.90;;;2.00;;
55172;SDS011;41061;52.822;6.860;2023-04-24T12:10:14;8.57;;;2.20;;
55172;SDS011;41061;52.822;6.860;2023-04-24T12:12:44;8.73;;;2.17;;
55172;SDS011;41061;52.822;6.860;2023-04-24T12:15:11;9.45;;;2.17;;
55172;SDS011;41061;52.822;6.860;2023-04-24T12:17:40;7.47;;;2.20;;
55172;SDS011;41061;52.822;6.860;2023-04-24T12:20:07;9.93;;;1.98;;
55172;SDS011;41061;52.822;6.860;2023-04-24T12:25:20;12.00;;;1.92;;
55172;SDS011;41061;52.822;6.860;2023-04-24T12:27:52;6.63;;;1.45;;
55172;SDS011;41061;52.822;6.860;2023-04-24T12:30:31;4.40;;;1.67;;
55172;SDS011;41061;52.822;6.860;2023-04-24T12:32:59;7.43;;;1.83;;
55172;SDS011;41061;52.822;6.860;2023-04-24T12:35:29;10.45;;;1.90;;
55172;SDS011;41061;52.822;6.860;2023-04-24T12:38:05;7.68;;;1.80;;
55172;SDS011;41061;52.822;6.860;2023-04-24T12:40:35;6.07;;;1.80;;
55172;SDS011;41061;52.822;6.860;2023-04-24T12:43:01;5.30;;;1.58;;
55172;SDS011;41061;52.822;6.860;2023-04-24T12:45:26;9.27;;;1.60;;
55172;SDS011;41061;52.822;6.860;2023-04-24T12:47:53;8.52;;;1.75;;
55172;SDS011;41061;52.822;6.860;2023-04-24T12:50:19;8.60;;;1.63;;
55172;SDS011;41061;52.822;6.860;2023-04-24T12:52:44;7.15;;;1.38;;
55172;SDS011;41061;52.822;6.860;2023-04-24T12:55:10;6.97;;;1.70;;
55172;SDS011;41061;52.822;6.860;2023-04-24T12:57:37;7.70;;;1.50;;
55172;SDS011;41061;52.822;6.860;2023-04-24T13:00:05;8.18;;;1.80;;
55172;SDS011;41061;52.822;6.860;2023-04-24T13:02:32;6.32;;;1.52;;
55172;SDS011;41061;52.822;6.860;2023-04-24T13:04:58;6.38;;;2.13;;
55172;SDS011;41061;52.822;6.860;2023-04-24T13:07:25;5.80;;;3.38;;
55172;SDS011;41061;52.822;6.860;2023-04-24T13:09:51;5.40;;;1.10;;
55172;SDS011;41061;52.822;6.860;2023-04-24T13:12:18;2.55;;;0.90;;
55172;SDS011;41061;52.822;6.860;2023-04-24T13:14:44;3.60;;;0.90;;
55172;SDS011;41061;52.822;6.860;2023-04-24T13:17:10;3.13;;;0.55;;
55172;SDS011;41061;52.822;6.860;2023-04-24T13:19:42;2.38;;;0.90;;
55172;SDS011;41061;52.822;6.860;2023-04-24T13:22:09;3.20;;;1.02;;
55172;SDS011;41061;52.822;6.860;2023-04-24T13:24:35;4.05;;;0.70;;
55172;SDS011;41061;52.822;6.860;2023-04-24T13:27:02;3.35;;;0.70;;
55172;SDS011;41061;52.822;6.860;2023-04-24T13:29:28;4.07;;;0.90;;
55172;SDS011;41061;52.822;6.860;2023-04-24T13:31:54;4.55;;;0.93;;
55172;SDS011;41061;52.822;6.860;2023-04-24T13:34:21;9.85;;;2.33;;
55172;SDS011;41061;52.822;6.860;2023-04-24T13:36:52;4.88;;;0.73;;
55172;SDS011;41061;52.822;6.860;2023-04-24T13:39:19;7.70;;;0.88;;
55172;SDS011;41061;52.822;6.860;2023-04-24T13:41:45;4.75;;;0.88;;
55172;SDS011;41061;52.822;6.860;2023-04-24T13:44:13;6.07;;;1.00;;
55172;SDS011;41061;52.822;6.860;2023-04-24T13:46:40;6.10;;;0.80;;
55172;SDS011;41061;52.822;6.860;2023-04-24T13:49:06;3.40;;;1.02;;
55172;SDS011;41061;52.822;6.860;2023-04-24T13:51:32;6.80;;;1.08;;
55172;SDS011;41061;52.822;6.860;2023-04-24T13:53:58;5.38;;;1.00;;
55172;SDS011;41061;52.822;6.860;2023-04-24T13:56:24;6.85;;;1.08;;
55172;SDS011;41061;52.822;6.860;2023-04-24T13:58:51;5.05;;;0.85;;
55172;SDS011;41061;52.822;6.860;2023-04-24T14:01:18;6.43;;;1.08;;
55172;SDS011;41061;52.822;6.860;2023-04-24T14:03:44;2.88;;;0.70;;
55172;SDS011;41061;52.822;6.860;2023-04-24T14:06:10;4.55;;;0.88;;
55172;SDS011;41061;52.822;6.860;2023-04-24T14:08:36;6.05;;;1.50;;
55172;SDS011;41061;52.822;6.860;2023-04-24T14:11:01;3.70;;;0.85;;
55172;SDS011;41061;52.822;6.860;2023-04-24T14:13:27;3.85;;;0.93;;
55172;SDS011;41061;52.822;6.860;2023-04-24T14:15:53;7.40;;;0.82;;
55172;SDS011;41061;52.822;6.860;2023-04-24T14:18:19;6.00;;;1.10;;
55172;SDS011;41061;52.822;6.860;2023-04-24T14:20:45;4.63;;;1.38;;
55172;SDS011;41061;52.822;6.860;2023-04-24T14:23:11;4.05;;;0.85;;
55172;SDS011;41061;52.822;6.860;2023-04-24T14:25:37;5.00;;;1.05;;
55172;SDS011;41061;52.822;6.860;2023-04-24T14:28:02;2.85;;;1.02;;
55172;SDS011;41061;52.822;6.860;2023-04-24T14:30:28;7.78;;;1.20;;
55172;SDS011;41061;52.822;6.860;2023-04-24T14:32:54;5.60;;;1.25;;
55172;SDS011;41061;52.822;6.860;2023-04-24T14:35:19;8.57;;;2.58;;
55172;SDS011;41061;52.822;6.860;2023-04-24T14:37:45;5.47;;;1.10;;
55172;SDS011;41061;52.822;6.860;2023-04-24T14:40:11;5.25;;;1.10;;
55172;SDS011;41061;52.822;6.860;2023-04-24T14:42:36;7.05;;;1.15;;
55172;SDS011;41061;52.822;6.860;2023-04-24T14:45:02;8.50;;;1.40;;
55172;SDS011;41061;52.822;6.860;2023-04-24T14:47:28;7.32;;;1.38;;
55172;SDS011;41061;52.822;6.860;2023-04-24T14:49:54;3.88;;;0.93;;
55172;SDS011;41061;52.822;6.860;2023-04-24T14:52:20;6.93;;;1.38;;
55172;SDS011;41061;52.822;6.860;2023-04-24T14:54:46;10.73;;;1.67;;
55172;SDS011;41061;52.822;6.860;2023-04-24T14:57:12;7.05;;;1.20;;
55172;SDS011;41061;52.822;6.860;2023-04-24T14:59:38;5.78;;;1.35;;
55172;SDS011;41061;52.822;6.860;2023-04-24T15:02:03;6.03;;;1.25;;
55172;SDS011;41061;52.822;6.860;2023-04-24T15:04:29;7.75;;;1.35;;
55172;SDS011;41061;52.822;6.860;2023-04-24T15:06:56;8.73;;;1.50;;